sensor_id;sensor_type;location;lat;lon;timestamp;P1;durP1;ratioP1;P2;durP2;ratioP2
37495;SDS011;23346;52.088;4.746;2022-09-09T00:00:53;8.80;;;5.53;;
37495;SDS011;23346;52.088;4.746;2022-09-09T00:03:22;9.17;;;5.97;;
37495;SDS011;23346;52.088;4.746;2022-09-09T00:08:20;10.33;;;6.07;;
37495;SDS011;23346;52.088;4.746;2022-09-09T00:10:49;14.27;;;7.20;;
37495;SDS011;23346;52.088;4.746;2022-09-09T00:18:41;19.63;;;8.63;;
37495;SDS011;23346;52.088;4.746;2022-09-09T00:21:13;17.03;;;9.70;;
37495;SDS011;23346;52.088;4.746;2022-09-09T00:23:51;17.00;;;10.27;;
37495;SDS011;23346;52.088;4.746;2022-09-09T00:26:35;17.03;;;10.17;;
37495;SDS011;23346;52.088;4.746;2022-09-09T00:29:12;16.67;;;10.60;;
37495;SDS011;23346;52.088;4.746;2022-09-09T00:31:40;26.13;;;11.43;;
37495;SDS011;23346;52.088;4.746;2022-09-09T00:37:03;22.70;;;12.77;;
37495;SDS011;23346;52.088;4.746;2022-09-09T00:39:41;18.63;;;12.43;;
37495;SDS011;23346;52.088;4.746;2022-09-09T00:44:54;24.93;;;14.33;;
37495;SDS011;23346;52.088;4.746;2022-09-09T00:55:39;24.60;;;14.47;;
37495;SDS011;23346;52.088;4.746;2022-09-09T00:58:08;24.80;;;15.10;;
37495;SDS011;23346;52.088;4.746;2022-09-09T01:00:44;25.27;;;16.13;;
37495;SDS011;23346;52.088;4.746;2022-09-09T02:06:55;29.67;;;16.97;;
37495;SDS011;23346;52.088;4.746;2022-09-09T02:09:25;30.27;;;16.87;;
37495;SDS011;23346;52.088;4.746;2022-09-09T02:11:55;30.00;;;16.20;;
37495;SDS011;23346;52.088;4.746;2022-09-09T02:14:25;26.93;;;16.20;;
37495;SDS011;23346;52.088;4.746;2022-09-09T02:17:03;29.80;;;16.23;;
37495;SDS011;23346;52.088;4.746;2022-09-09T02:19:32;27.83;;;15.33;;
37495;SDS011;23346;52.088;4.746;2022-09-09T02:22:00;25.73;;;16.30;;
37495;SDS011;23346;52.088;4.746;2022-09-09T02:24:27;26.20;;;15.37;;
37495;SDS011;23346;52.088;4.746;2022-09-09T02:26:54;32.50;;;15.60;;
37495;SDS011;23346;52.088;4.746;2022-09-09T02:29:30;30.77;;;16.47;;
37495;SDS011;23346;52.088;4.746;2022-09-09T02:31:58;29.40;;;15.40;;
37495;SDS011;23346;52.088;4.746;2022-09-09T02:34:25;29.10;;;15.23;;
37495;SDS011;23346;52.088;4.746;2022-09-09T02:36:53;27.33;;;16.07;;
37495;SDS011;23346;52.088;4.746;2022-09-09T02:39:19;33.10;;;16.57;;
37495;SDS011;23346;52.088;4.746;2022-09-09T02:41:45;33.90;;;16.30;;
37495;SDS011;23346;52.088;4.746;2022-09-09T02:44:13;31.83;;;17.50;;
37495;SDS011;23346;52.088;4.746;2022-09-09T02:46:46;33.93;;;17.47;;
37495;SDS011;23346;52.088;4.746;2022-09-09T02:49:22;29.80;;;16.60;;
37495;SDS011;23346;52.088;4.746;2022-09-09T02:54:37;34.57;;;18.60;;
37495;SDS011;23346;52.088;4.746;2022-09-09T02:57:08;39.57;;;19.23;;
37495;SDS011;23346;52.088;4.746;2022-09-09T02:59:36;38.00;;;19.37;;
37495;SDS011;23346;52.088;4.746;2022-09-09T03:02:02;35.67;;;18.30;;
37495;SDS011;23346;52.088;4.746;2022-09-09T03:04:28;33.70;;;18.33;;
37495;SDS011;23346;52.088;4.746;2022-09-09T03:06:56;40.97;;;18.80;;
37495;SDS011;23346;52.088;4.746;2022-09-09T03:09:22;44.33;;;20.27;;
37495;SDS011;23346;52.088;4.746;2022-09-09T03:11:48;34.53;;;18.37;;
37495;SDS011;23346;52.088;4.746;2022-09-09T03:14:14;38.87;;;18.60;;
37495;SDS011;23346;52.088;4.746;2022-09-09T03:16:40;41.90;;;18.53;;
37495;SDS011;23346;52.088;4.746;2022-09-09T03:19:07;37.57;;;18.73;;
37495;SDS011;23346;52.088;4.746;2022-09-09T03:21:34;39.43;;;17.50;;
37495;SDS011;23346;52.088;4.746;2022-09-09T03:24:00;34.47;;;17.77;;
37495;SDS011;23346;52.088;4.746;2022-09-09T03:26:28;38.63;;;17.70;;
37495;SDS011;23346;52.088;4.746;2022-09-09T03:28:55;35.97;;;17.67;;
37495;SDS011;23346;52.088;4.746;2022-09-09T03:31:21;36.20;;;17.27;;
37495;SDS011;23346;52.088;4.746;2022-09-09T03:33:47;34.20;;;17.77;;
37495;SDS011;23346;52.088;4.746;2022-09-09T03:36:13;41.90;;;17.67;;
37495;SDS011;23346;52.088;4.746;2022-09-09T03:38:39;33.83;;;17.07;;
37495;SDS011;23346;52.088;4.746;2022-09-09T03:41:05;36.07;;;17.33;;
37495;SDS011;23346;52.088;4.746;2022-09-09T03:43:32;36.17;;;18.77;;
37495;SDS011;23346;52.088;4.746;2022-09-09T03:45:58;33.03;;;17.13;;
37495;SDS011;23346;52.088;4.746;2022-09-09T03:48:26;40.33;;;17.87;;
37495;SDS011;23346;52.088;4.746;2022-09-09T03:50:53;33.73;;;16.80;;
37495;SDS011;23346;52.088;4.746;2022-09-09T03:53:21;37.43;;;17.77;;
37495;SDS011;23346;52.088;4.746;2022-09-09T03:55:49;37.27;;;18.30;;
37495;SDS011;23346;52.088;4.746;2022-09-09T03:58:15;33.33;;;17.13;;
37495;SDS011;23346;52.088;4.746;2022-09-09T04:00:55;35.97;;;17.23;;
37495;SDS011;23346;52.088;4.746;2022-09-09T04:03:21;38.07;;;16.50;;
37495;SDS011;23346;52.088;4.746;2022-09-09T04:05:49;34.23;;;17.53;;
37495;SDS011;23346;52.088;4.746;2022-09-09T04:08:16;37.37;;;17.03;;
37495;SDS011;23346;52.088;4.746;2022-09-09T04:10:44;38.80;;;17.27;;
37495;SDS011;23346;52.088;4.746;2022-09-09T04:13:11;32.40;;;15.83;;
37495;SDS011;23346;52.088;4.746;2022-09-09T04:15:39;33.27;;;15.30;;
37495;SDS011;23346;52.088;4.746;2022-09-09T04:18:05;37.70;;;15.80;;
37495;SDS011;23346;52.088;4.746;2022-09-09T04:20:31;37.07;;;15.07;;
37495;SDS011;23346;52.088;4.746;2022-09-09T04:22:58;29.97;;;15.77;;
37495;SDS011;23346;52.088;4.746;2022-09-09T04:25:24;28.43;;;14.20;;
37495;SDS011;23346;52.088;4.746;2022-09-09T04:27:54;31.33;;;15.20;;
37495;SDS011;23346;52.088;4.746;2022-09-09T04:30:21;27.93;;;14.67;;
37495;SDS011;23346;52.088;4.746;2022-09-09T04:32:47;28.37;;;13.80;;
37495;SDS011;23346;52.088;4.746;2022-09-09T04:35:13;35.40;;;14.47;;
37495;SDS011;23346;52.088;4.746;2022-09-09T04:37:39;29.90;;;13.73;;
37495;SDS011;23346;52.088;4.746;2022-09-09T04:40:05;33.20;;;13.77;;
37495;SDS011;23346;52.088;4.746;2022-09-09T04:42:35;28.90;;;14.50;;
37495;SDS011;23346;52.088;4.746;2022-09-09T04:45:01;25.30;;;12.83;;
37495;SDS011;23346;52.088;4.746;2022-09-09T04:47:27;25.87;;;12.87;;
37495;SDS011;23346;52.088;4.746;2022-09-09T04:49:53;28.07;;;13.97;;
37495;SDS011;23346;52.088;4.746;2022-09-09T04:52:19;33.20;;;13.57;;
37495;SDS011;23346;52.088;4.746;2022-09-09T04:54:45;29.53;;;13.43;;
37495;SDS011;23346;52.088;4.746;2022-09-09T04:57:12;31.43;;;12.50;;
37495;SDS011;23346;52.088;4.746;2022-09-09T04:59:38;33.87;;;13.90;;
37495;SDS011;23346;52.088;4.746;2022-09-09T05:02:05;32.60;;;13.70;;
37495;SDS011;23346;52.088;4.746;2022-09-09T05:04:31;30.93;;;13.33;;
37495;SDS011;23346;52.088;4.746;2022-09-09T05:06:58;25.67;;;12.37;;
37495;SDS011;23346;52.088;4.746;2022-09-09T05:09:24;29.13;;;12.77;;
37495;SDS011;23346;52.088;4.746;2022-09-09T05:11:50;36.27;;;12.90;;
37495;SDS011;23346;52.088;4.746;2022-09-09T05:14:17;41.20;;;13.17;;
37495;SDS011;23346;52.088;4.746;2022-09-09T05:16:44;27.63;;;13.47;;
37495;SDS011;23346;52.088;4.746;2022-09-09T05:19:10;32.27;;;12.63;;
37495;SDS011;23346;52.088;4.746;2022-09-09T05:21:36;32.20;;;12.37;;
37495;SDS011;23346;52.088;4.746;2022-09-09T05:24:02;27.87;;;12.23;;
37495;SDS011;23346;52.088;4.746;2022-09-09T05:26:28;25.93;;;11.17;;
37495;SDS011;23346;52.088;4.746;2022-09-09T05:28:54;22.33;;;11.33;;
37495;SDS011;23346;52.088;4.746;2022-09-09T05:31:21;22.07;;;11.40;;
37495;SDS011;23346;52.088;4.746;2022-09-09T05:33:47;28.77;;;10.80;;
37495;SDS011;23346;52.088;4.746;2022-09-09T05:38:40;28.43;;;10.73;;
37495;SDS011;23346;52.088;4.746;2022-09-09T05:41:07;25.63;;;11.47;;
37495;SDS011;23346;52.088;4.746;2022-09-09T05:43:33;24.47;;;10.13;;
37495;SDS011;23346;52.088;4.746;2022-09-09T05:48:39;29.73;;;10.80;;
37495;SDS011;23346;52.088;4.746;2022-09-09T05:51:07;27.37;;;10.57;;
37495;SDS011;23346;52.088;4.746;2022-09-09T05:53:33;24.23;;;9.70;;
37495;SDS011;23346;52.088;4.746;2022-09-09T05:56:00;26.23;;;10.87;;
37495;SDS011;23346;52.088;4.746;2022-09-09T05:58:28;25.87;;;9.63;;
37495;SDS011;23346;52.088;4.746;2022-09-09T06:00:59;26.17;;;10.90;;
37495;SDS011;23346;52.088;4.746;2022-09-09T06:03:26;25.80;;;10.40;;
37495;SDS011;23346;52.088;4.746;2022-09-09T06:05:58;27.80;;;11.20;;
37495;SDS011;23346;52.088;4.746;2022-09-09T06:08:25;19.63;;;10.00;;
37495;SDS011;23346;52.088;4.746;2022-09-09T06:10:51;23.43;;;9.27;;
37495;SDS011;23346;52.088;4.746;2022-09-09T06:13:17;23.33;;;9.80;;
37495;SDS011;23346;52.088;4.746;2022-09-09T06:15:50;18.80;;;8.77;;
37495;SDS011;23346;52.088;4.746;2022-09-09T06:18:16;23.83;;;9.17;;
37495;SDS011;23346;52.088;4.746;2022-09-09T06:20:52;22.60;;;9.30;;
37495;SDS011;23346;52.088;4.746;2022-09-09T06:23:19;16.53;;;7.77;;
37495;SDS011;23346;52.088;4.746;2022-09-09T06:25:45;25.67;;;9.20;;
37495;SDS011;23346;52.088;4.746;2022-09-09T06:28:11;25.00;;;8.03;;
37495;SDS011;23346;52.088;4.746;2022-09-09T06:30:38;24.90;;;9.37;;
37495;SDS011;23346;52.088;4.746;2022-09-09T06:33:05;14.93;;;8.10;;
37495;SDS011;23346;52.088;4.746;2022-09-09T06:35:31;20.17;;;7.03;;
37495;SDS011;23346;52.088;4.746;2022-09-09T06:37:57;16.20;;;7.23;;
37495;SDS011;23346;52.088;4.746;2022-09-09T06:40:24;15.70;;;7.37;;
37495;SDS011;23346;52.088;4.746;2022-09-09T06:42:50;18.67;;;6.70;;
37495;SDS011;23346;52.088;4.746;2022-09-09T06:45:16;16.60;;;6.60;;
37495;SDS011;23346;52.088;4.746;2022-09-09T06:47:42;21.93;;;6.77;;
37495;SDS011;23346;52.088;4.746;2022-09-09T06:50:08;17.20;;;6.88;;
37495;SDS011;23346;52.088;4.746;2022-09-09T06:52:35;22.67;;;6.68;;
37495;SDS011;23346;52.088;4.746;2022-09-09T06:55:02;21.67;;;6.43;;
37495;SDS011;23346;52.088;4.746;2022-09-09T06:57:28;18.00;;;6.90;;
37495;SDS011;23346;52.088;4.746;2022-09-09T06:59:54;15.25;;;7.88;;
37495;SDS011;23346;52.088;4.746;2022-09-09T07:02:20;18.27;;;6.63;;
37495;SDS011;23346;52.088;4.746;2022-09-09T07:04:46;14.73;;;6.43;;
37495;SDS011;23346;52.088;4.746;2022-09-09T07:07:16;18.33;;;6.47;;
37495;SDS011;23346;52.088;4.746;2022-09-09T07:09:42;13.35;;;6.03;;
37495;SDS011;23346;52.088;4.746;2022-09-09T07:12:10;14.67;;;5.67;;
37495;SDS011;23346;52.088;4.746;2022-09-09T07:14:37;20.25;;;6.93;;
37495;SDS011;23346;52.088;4.746;2022-09-09T07:17:04;13.40;;;6.43;;
37495;SDS011;23346;52.088;4.746;2022-09-09T07:19:30;17.67;;;6.70;;
37495;SDS011;23346;52.088;4.746;2022-09-09T07:21:56;13.35;;;6.32;;
37495;SDS011;23346;52.088;4.746;2022-09-09T07:24:22;17.08;;;5.70;;
37495;SDS011;23346;52.088;4.746;2022-09-09T07:26:48;21.20;;;6.00;;
37495;SDS011;23346;52.088;4.746;2022-09-09T07:29:14;12.27;;;5.15;;
37495;SDS011;23346;52.088;4.746;2022-09-09T07:31:41;15.98;;;5.55;;
37495;SDS011;23346;52.088;4.746;2022-09-09T07:34:07;16.27;;;5.60;;
37495;SDS011;23346;52.088;4.746;2022-09-09T07:36:34;11.40;;;6.05;;
37495;SDS011;23346;52.088;4.746;2022-09-09T07:39:02;12.15;;;5.57;;
37495;SDS011;23346;52.088;4.746;2022-09-09T07:41:36;16.80;;;5.80;;
37495;SDS011;23346;52.088;4.746;2022-09-09T07:44:09;8.73;;;5.90;;
37495;SDS011;23346;52.088;4.746;2022-09-09T07:46:36;20.42;;;6.15;;
37495;SDS011;23346;52.088;4.746;2022-09-09T07:49:03;16.20;;;5.63;;
37495;SDS011;23346;52.088;4.746;2022-09-09T07:51:34;15.32;;;5.25;;
37495;SDS011;23346;52.088;4.746;2022-09-09T07:54:01;10.07;;;4.47;;
37495;SDS011;23346;52.088;4.746;2022-09-09T07:56:28;11.95;;;5.68;;
37495;SDS011;23346;52.088;4.746;2022-09-09T07:58:55;9.07;;;5.53;;
37495;SDS011;23346;52.088;4.746;2022-09-09T08:01:22;11.50;;;4.38;;
37495;SDS011;23346;52.088;4.746;2022-09-09T08:03:52;13.48;;;5.40;;
37495;SDS011;23346;52.088;4.746;2022-09-09T08:06:19;12.43;;;4.20;;
37495;SDS011;23346;52.088;4.746;2022-09-09T08:08:49;12.30;;;4.57;;
37495;SDS011;23346;52.088;4.746;2022-09-09T08:11:15;16.63;;;4.82;;
37495;SDS011;23346;52.088;4.746;2022-09-09T08:13:42;12.55;;;4.43;;
37495;SDS011;23346;52.088;4.746;2022-09-09T08:16:13;12.32;;;4.50;;
37495;SDS011;23346;52.088;4.746;2022-09-09T08:18:39;10.88;;;5.20;;
37495;SDS011;23346;52.088;4.746;2022-09-09T08:21:12;10.88;;;4.68;;
37495;SDS011;23346;52.088;4.746;2022-09-09T08:23:40;14.63;;;5.53;;
37495;SDS011;23346;52.088;4.746;2022-09-09T08:26:07;18.92;;;5.45;;
37495;SDS011;23346;52.088;4.746;2022-09-09T08:28:34;10.45;;;4.72;;
37495;SDS011;23346;52.088;4.746;2022-09-09T08:31:13;14.40;;;5.32;;
37495;SDS011;23346;52.088;4.746;2022-09-09T08:33:40;17.80;;;4.60;;
37495;SDS011;23346;52.088;4.746;2022-09-09T08:36:06;10.20;;;4.78;;
37495;SDS011;23346;52.088;4.746;2022-09-09T08:38:34;15.15;;;4.70;;
37495;SDS011;23346;52.088;4.746;2022-09-09T08:43:50;11.68;;;4.78;;
37495;SDS011;23346;52.088;4.746;2022-09-09T08:51:12;11.13;;;3.30;;
37495;SDS011;23346;52.088;4.746;2022-09-09T08:53:41;11.10;;;3.42;;
37495;SDS011;23346;52.088;4.746;2022-09-09T08:56:15;7.85;;;3.53;;
37495;SDS011;23346;52.088;4.746;2022-09-09T08:58:47;12.30;;;3.33;;
37495;SDS011;23346;52.088;4.746;2022-09-09T09:11:54;7.55;;;2.45;;
37495;SDS011;23346;52.088;4.746;2022-09-09T09:14:26;13.75;;;4.10;;
37495;SDS011;23346;52.088;4.746;2022-09-09T09:16:55;10.50;;;3.15;;
37495;SDS011;23346;52.088;4.746;2022-09-09T09:19:22;19.45;;;3.13;;
37495;SDS011;23346;52.088;4.746;2022-09-09T09:21:52;8.98;;;3.53;;
37495;SDS011;23346;52.088;4.746;2022-09-09T09:24:21;10.25;;;3.78;;
37495;SDS011;23346;52.088;4.746;2022-09-09T09:26:49;6.65;;;3.58;;
37495;SDS011;23346;52.088;4.746;2022-09-09T09:29:16;13.18;;;4.93;;
37495;SDS011;23346;52.088;4.746;2022-09-09T09:31:48;11.05;;;4.18;;
37495;SDS011;23346;52.088;4.746;2022-09-09T09:34:17;8.75;;;4.07;;
37495;SDS011;23346;52.088;4.746;2022-09-09T09:36:53;12.50;;;4.07;;
37495;SDS011;23346;52.088;4.746;2022-09-09T09:39:23;16.25;;;4.07;;
37495;SDS011;23346;52.088;4.746;2022-09-09T09:41:50;12.18;;;3.92;;
37495;SDS011;23346;52.088;4.746;2022-09-09T09:46:49;7.03;;;3.88;;
37495;SDS011;23346;52.088;4.746;2022-09-09T09:49:15;12.00;;;4.85;;
37495;SDS011;23346;52.088;4.746;2022-09-09T09:51:42;15.07;;;5.07;;
37495;SDS011;23346;52.088;4.746;2022-09-09T09:54:19;12.10;;;4.15;;
37495;SDS011;23346;52.088;4.746;2022-09-09T09:56:48;16.80;;;4.65;;
37495;SDS011;23346;52.088;4.746;2022-09-09T09:59:21;15.68;;;4.57;;
37495;SDS011;23346;52.088;4.746;2022-09-09T10:01:47;17.08;;;4.20;;
37495;SDS011;23346;52.088;4.746;2022-09-09T10:04:17;16.10;;;4.20;;
37495;SDS011;23346;52.088;4.746;2022-09-09T10:06:45;15.07;;;3.65;;
37495;SDS011;23346;52.088;4.746;2022-09-09T10:19:09;10.65;;;2.83;;
37495;SDS011;23346;52.088;4.746;2022-09-09T10:26:55;4.25;;;1.58;;
37495;SDS011;23346;52.088;4.746;2022-09-09T10:29:34;9.00;;;1.88;;
37495;SDS011;23346;52.088;4.746;2022-09-09T10:40:05;10.07;;;2.33;;
37495;SDS011;23346;52.088;4.746;2022-09-09T10:42:38;9.77;;;2.70;;
37495;SDS011;23346;52.088;4.746;2022-09-09T10:46:06;7.03;;;2.15;;
37495;SDS011;23346;52.088;4.746;2022-09-09T10:50:50;5.22;;;2.33;;
37495;SDS011;23346;52.088;4.746;2022-09-09T10:53:35;12.45;;;1.63;;
37495;SDS011;23346;52.088;4.746;2022-09-09T10:56:04;8.15;;;2.45;;
37495;SDS011;23346;52.088;4.746;2022-09-09T10:58:35;9.57;;;1.70;;
37495;SDS011;23346;52.088;4.746;2022-09-09T11:01:06;7.15;;;2.03;;
37495;SDS011;23346;52.088;4.746;2022-09-09T11:03:35;8.68;;;1.77;;
37495;SDS011;23346;52.088;4.746;2022-09-09T11:06:03;6.30;;;1.85;;
37495;SDS011;23346;52.088;4.746;2022-09-09T11:08:31;6.72;;;1.95;;
37495;SDS011;23346;52.088;4.746;2022-09-09T11:11:08;8.27;;;1.60;;
37495;SDS011;23346;52.088;4.746;2022-09-09T11:13:42;6.70;;;1.67;;
37495;SDS011;23346;52.088;4.746;2022-09-09T11:18:40;8.55;;;1.70;;
37495;SDS011;23346;52.088;4.746;2022-09-09T11:21:11;6.00;;;1.70;;
37495;SDS011;23346;52.088;4.746;2022-09-09T11:23:40;7.18;;;1.77;;
37495;SDS011;23346;52.088;4.746;2022-09-09T11:26:10;5.68;;;1.80;;
37495;SDS011;23346;52.088;4.746;2022-09-09T11:33:55;7.68;;;1.85;;
37495;SDS011;23346;52.088;4.746;2022-09-09T11:41:46;4.68;;;1.23;;
37495;SDS011;23346;52.088;4.746;2022-09-09T11:44:12;6.63;;;1.60;;
37495;SDS011;23346;52.088;4.746;2022-09-09T11:46:42;7.13;;;1.80;;
37495;SDS011;23346;52.088;4.746;2022-09-09T11:49:25;5.80;;;1.80;;
37495;SDS011;23346;52.088;4.746;2022-09-09T11:51:51;3.78;;;1.40;;
37495;SDS011;23346;52.088;4.746;2022-09-09T11:54:26;6.13;;;1.77;;
37495;SDS011;23346;52.088;4.746;2022-09-09T11:56:54;3.90;;;1.60;;
37495;SDS011;23346;52.088;4.746;2022-09-09T11:59:25;9.23;;;2.05;;
37495;SDS011;23346;52.088;4.746;2022-09-09T12:01:56;7.20;;;1.80;;
37495;SDS011;23346;52.088;4.746;2022-09-09T12:04:27;7.28;;;1.77;;
37495;SDS011;23346;52.088;4.746;2022-09-09T12:09:36;4.93;;;2.13;;
37495;SDS011;23346;52.088;4.746;2022-09-09T12:12:47;6.25;;;2.08;;
37495;SDS011;23346;52.088;4.746;2022-09-09T12:14:55;8.10;;;2.85;;
37495;SDS011;23346;52.088;4.746;2022-09-09T12:17:23;8.95;;;3.28;;
37495;SDS011;23346;52.088;4.746;2022-09-09T12:27:43;30.58;;;7.47;;
37495;SDS011;23346;52.088;4.746;2022-09-09T12:30:12;26.65;;;6.90;;
37495;SDS011;23346;52.088;4.746;2022-09-09T12:32:40;18.52;;;6.63;;
37495;SDS011;23346;52.088;4.746;2022-09-09T12:35:10;16.65;;;8.00;;
37495;SDS011;23346;52.088;4.746;2022-09-09T12:37:50;27.00;;;7.93;;
37495;SDS011;23346;52.088;4.746;2022-09-09T12:42:48;41.30;;;10.20;;
37495;SDS011;23346;52.088;4.746;2022-09-09T12:45:18;19.58;;;9.20;;
37495;SDS011;23346;52.088;4.746;2022-09-09T12:47:46;21.48;;;10.27;;
37495;SDS011;23346;52.088;4.746;2022-09-09T12:52:51;17.92;;;10.38;;
37495;SDS011;23346;52.088;4.746;2022-09-09T12:55:20;20.20;;;12.23;;
37495;SDS011;23346;52.088;4.746;2022-09-09T12:57:50;20.60;;;10.93;;
37495;SDS011;23346;52.088;4.746;2022-09-09T13:00:17;18.95;;;10.27;;
37495;SDS011;23346;52.088;4.746;2022-09-09T13:02:49;17.15;;;9.73;;
37495;SDS011;23346;52.088;4.746;2022-09-09T13:05:18;13.90;;;9.07;;
37495;SDS011;23346;52.088;4.746;2022-09-09T13:07:45;10.77;;;7.53;;
37495;SDS011;23346;52.088;4.746;2022-09-09T13:10:12;14.40;;;8.50;;
37495;SDS011;23346;52.088;4.746;2022-09-09T13:12:39;10.32;;;8.02;;
37495;SDS011;23346;52.088;4.746;2022-09-09T13:15:09;11.90;;;7.85;;
37495;SDS011;23346;52.088;4.746;2022-09-09T13:17:38;16.52;;;7.50;;
37495;SDS011;23346;52.088;4.746;2022-09-09T13:20:05;13.55;;;7.38;;
37495;SDS011;23346;52.088;4.746;2022-09-09T13:22:36;18.30;;;7.57;;
37495;SDS011;23346;52.088;4.746;2022-09-09T13:25:17;14.07;;;7.20;;
37495;SDS011;23346;52.088;4.746;2022-09-09T13:30:23;15.88;;;7.32;;
37495;SDS011;23346;52.088;4.746;2022-09-09T13:32:59;15.93;;;7.63;;
37495;SDS011;23346;52.088;4.746;2022-09-09T13:35:26;17.02;;;7.38;;
37495;SDS011;23346;52.088;4.746;2022-09-09T13:37:52;9.65;;;5.53;;
37495;SDS011;23346;52.088;4.746;2022-09-09T13:40:20;8.73;;;4.78;;
37495;SDS011;23346;52.088;4.746;2022-09-09T13:42:46;9.40;;;5.32;;
37495;SDS011;23346;52.088;4.746;2022-09-09T13:45:19;7.22;;;4.88;;
37495;SDS011;23346;52.088;4.746;2022-09-09T13:47:46;12.23;;;5.80;;
37495;SDS011;23346;52.088;4.746;2022-09-09T13:50:24;9.90;;;5.32;;
37495;SDS011;23346;52.088;4.746;2022-09-09T13:52:52;8.75;;;5.38;;
37495;SDS011;23346;52.088;4.746;2022-09-09T13:55:19;9.57;;;4.68;;
37495;SDS011;23346;52.088;4.746;2022-09-09T14:00:18;6.90;;;3.70;;
37495;SDS011;23346;52.088;4.746;2022-09-09T14:02:45;7.22;;;2.88;;
37495;SDS011;23346;52.088;4.746;2022-09-09T14:05:12;10.43;;;3.67;;
37495;SDS011;23346;52.088;4.746;2022-09-09T14:07:38;7.50;;;2.65;;
37495;SDS011;23346;52.088;4.746;2022-09-09T14:10:07;7.10;;;2.88;;
37495;SDS011;23346;52.088;4.746;2022-09-09T14:12:33;8.95;;;2.58;;
37495;SDS011;23346;52.088;4.746;2022-09-09T14:14:59;6.72;;;1.88;;
37495;SDS011;23346;52.088;4.746;2022-09-09T14:17:25;5.85;;;2.70;;
37495;SDS011;23346;52.088;4.746;2022-09-09T14:19:54;9.23;;;2.38;;
37495;SDS011;23346;52.088;4.746;2022-09-09T14:22:21;6.30;;;1.80;;
37495;SDS011;23346;52.088;4.746;2022-09-09T14:24:47;5.65;;;1.73;;
37495;SDS011;23346;52.088;4.746;2022-09-09T14:27:13;7.03;;;1.63;;
37495;SDS011;23346;52.088;4.746;2022-09-09T14:29:39;4.53;;;2.58;;
37495;SDS011;23346;52.088;4.746;2022-09-09T14:32:05;6.80;;;1.98;;
37495;SDS011;23346;52.088;4.746;2022-09-09T14:34:31;7.30;;;2.10;;
37495;SDS011;23346;52.088;4.746;2022-09-09T14:36:57;8.50;;;2.40;;
37495;SDS011;23346;52.088;4.746;2022-09-09T14:39:23;4.93;;;2.60;;
37495;SDS011;23346;52.088;4.746;2022-09-09T14:41:49;4.80;;;3.00;;
37495;SDS011;23346;52.088;4.746;2022-09-09T14:44:15;6.50;;;3.28;;
37495;SDS011;23346;52.088;4.746;2022-09-09T14:46:41;7.28;;;3.22;;
37495;SDS011;23346;52.088;4.746;2022-09-09T14:49:07;8.02;;;3.17;;
37495;SDS011;23346;52.088;4.746;2022-09-09T14:51:35;9.10;;;3.67;;
37495;SDS011;23346;52.088;4.746;2022-09-09T14:54:01;9.75;;;4.20;;
37495;SDS011;23346;52.088;4.746;2022-09-09T14:56:29;8.30;;;4.40;;
37495;SDS011;23346;52.088;4.746;2022-09-09T14:58:56;9.35;;;5.07;;
37495;SDS011;23346;52.088;4.746;2022-09-09T15:01:22;11.38;;;4.43;;
37495;SDS011;23346;52.088;4.746;2022-09-09T15:03:52;14.80;;;7.82;;
37495;SDS011;23346;52.088;4.746;2022-09-09T15:06:19;8.57;;;4.78;;
37495;SDS011;23346;52.088;4.746;2022-09-09T15:08:46;9.05;;;4.40;;
37495;SDS011;23346;52.088;4.746;2022-09-09T15:11:13;6.35;;;3.47;;
37495;SDS011;23346;52.088;4.746;2022-09-09T15:13:40;13.07;;;2.80;;
37495;SDS011;23346;52.088;4.746;2022-09-09T15:16:08;5.13;;;2.30;;
37495;SDS011;23346;52.088;4.746;2022-09-09T15:18:35;5.63;;;1.50;;
37495;SDS011;23346;52.088;4.746;2022-09-09T15:21:02;5.43;;;1.70;;
37495;SDS011;23346;52.088;4.746;2022-09-09T15:23:31;2.38;;;1.23;;
37495;SDS011;23346;52.088;4.746;2022-09-09T15:25:57;3.97;;;1.00;;
37495;SDS011;23346;52.088;4.746;2022-09-09T15:28:23;4.72;;;1.35;;
37495;SDS011;23346;52.088;4.746;2022-09-09T15:30:50;3.63;;;1.00;;
37495;SDS011;23346;52.088;4.746;2022-09-09T15:33:17;5.82;;;1.35;;
37495;SDS011;23346;52.088;4.746;2022-09-09T15:35:43;4.85;;;1.25;;
37495;SDS011;23346;52.088;4.746;2022-09-09T15:38:09;6.28;;;1.30;;
37495;SDS011;23346;52.088;4.746;2022-09-09T15:40:38;2.95;;;0.98;;
37495;SDS011;23346;52.088;4.746;2022-09-09T15:43:04;4.10;;;1.25;;
37495;SDS011;23346;52.088;4.746;2022-09-09T15:45:31;9.32;;;1.02;;
37495;SDS011;23346;52.088;4.746;2022-09-09T15:47:58;6.22;;;1.40;;
37495;SDS011;23346;52.088;4.746;2022-09-09T15:50:24;2.83;;;1.33;;
37495;SDS011;23346;52.088;4.746;2022-09-09T15:52:51;8.85;;;1.40;;
37495;SDS011;23346;52.088;4.746;2022-09-09T15:55:18;7.97;;;1.52;;
37495;SDS011;23346;52.088;4.746;2022-09-09T15:57:45;6.15;;;1.63;;
37495;SDS011;23346;52.088;4.746;2022-09-09T16:00:11;5.45;;;1.45;;
37495;SDS011;23346;52.088;4.746;2022-09-09T16:02:38;5.65;;;1.50;;
37495;SDS011;23346;52.088;4.746;2022-09-09T16:05:04;4.57;;;1.92;;
37495;SDS011;23346;52.088;4.746;2022-09-09T16:07:31;6.22;;;1.58;;
37495;SDS011;23346;52.088;4.746;2022-09-09T16:09:57;14.50;;;2.08;;
37495;SDS011;23346;52.088;4.746;2022-09-09T16:12:23;5.78;;;1.80;;
37495;SDS011;23346;52.088;4.746;2022-09-09T16:14:48;6.53;;;2.13;;
37495;SDS011;23346;52.088;4.746;2022-09-09T16:17:14;7.82;;;2.13;;
37495;SDS011;23346;52.088;4.746;2022-09-09T16:19:41;8.10;;;2.47;;
37495;SDS011;23346;52.088;4.746;2022-09-09T16:22:07;11.98;;;3.10;;
37495;SDS011;23346;52.088;4.746;2022-09-09T16:24:33;9.93;;;3.33;;
37495;SDS011;23346;52.088;4.746;2022-09-09T16:26:59;11.45;;;3.72;;
37495;SDS011;23346;52.088;4.746;2022-09-09T16:29:25;10.10;;;3.63;;
37495;SDS011;23346;52.088;4.746;2022-09-09T16:31:52;9.30;;;3.45;;
37495;SDS011;23346;52.088;4.746;2022-09-09T16:34:18;7.65;;;3.25;;
37495;SDS011;23346;52.088;4.746;2022-09-09T16:36:45;7.95;;;3.70;;
37495;SDS011;23346;52.088;4.746;2022-09-09T16:39:12;13.05;;;4.20;;
37495;SDS011;23346;52.088;4.746;2022-09-09T16:41:39;11.90;;;4.05;;
37495;SDS011;23346;52.088;4.746;2022-09-09T16:44:06;6.78;;;4.38;;
37495;SDS011;23346;52.088;4.746;2022-09-09T16:46:33;9.10;;;4.00;;
37495;SDS011;23346;52.088;4.746;2022-09-09T16:49:00;10.73;;;4.68;;
37495;SDS011;23346;52.088;4.746;2022-09-09T16:51:28;10.77;;;5.43;;
37495;SDS011;23346;52.088;4.746;2022-09-09T16:53:54;15.05;;;7.05;;
37495;SDS011;23346;52.088;4.746;2022-09-09T16:56:22;11.55;;;7.15;;
37495;SDS011;23346;52.088;4.746;2022-09-09T16:58:50;11.70;;;7.20;;
37495;SDS011;23346;52.088;4.746;2022-09-09T17:01:17;13.98;;;7.35;;
37495;SDS011;23346;52.088;4.746;2022-09-09T17:03:43;16.17;;;7.28;;
37495;SDS011;23346;52.088;4.746;2022-09-09T17:06:12;14.73;;;7.65;;
37495;SDS011;23346;52.088;4.746;2022-09-09T17:08:39;16.50;;;8.98;;
37495;SDS011;23346;52.088;4.746;2022-09-09T17:11:16;18.40;;;8.75;;
37495;SDS011;23346;52.088;4.746;2022-09-09T17:13:44;16.35;;;9.68;;
37495;SDS011;23346;52.088;4.746;2022-09-09T17:16:10;16.25;;;9.95;;
37495;SDS011;23346;52.088;4.746;2022-09-09T17:18:37;19.30;;;11.07;;
37495;SDS011;23346;52.088;4.746;2022-09-09T17:21:04;18.20;;;11.10;;
37495;SDS011;23346;52.088;4.746;2022-09-09T17:23:31;18.85;;;11.30;;
37495;SDS011;23346;52.088;4.746;2022-09-09T17:25:58;18.83;;;12.13;;
37495;SDS011;23346;52.088;4.746;2022-09-09T17:28:24;19.25;;;11.23;;
37495;SDS011;23346;52.088;4.746;2022-09-09T17:30:56;16.58;;;11.32;;
37495;SDS011;23346;52.088;4.746;2022-09-09T17:33:22;14.63;;;8.63;;